Muzaffarabad Weather



Muzaffarabad's Current Weather

Temprature 11.726o overcast clouds

overcast clouds

Rain: 0 %

Min Temprature11.726o
Max Temprature11.726o
Humidity46
Wind Speed3.38 m/h
Sun Rise05:28:02
Sun Set18:41:27
Current Time: 21-Apr-2019 05:43:17
Lat/Lon: 34.37, 73.47




Muzaffarabad's Geo Location



Muzaffarabad's Weather Forecast

Time Overall Temp Min Temp Max Temp Humidity Wind Speed Rain
21-Apr-2019 (Sun)
08:00:00 broken clouds 17.730 17.729 17.730 42 2.25 m/h 0 %
11:00:00 scattered clouds 23.150 23.150 23.150 28 1.56 m/h 0 %
14:00:00 clear sky 24.050 24.050 24.050 31 2.58 m/h 0 %
17:00:00 clear sky 22.850 22.850 22.850 39 1.89 m/h 0 %
20:00:00 clear sky 16.350 16.350 16.350 53 1.78 m/h 0 %
23:00:00 few clouds 14.970 14.970 14.970 49 3.11 m/h 0 %
22-Apr-2019 (Mon)
02:00:00 scattered clouds 13.770 13.770 13.770 39 3.46 m/h 0 %
05:00:00 scattered clouds 12.934 12.934 12.934 34 3.54 m/h 0 %
08:00:00 clear sky 19.106 19.106 19.106 37 2.48 m/h 0 %
11:00:00 clear sky 25.120 25.120 25.120 24 1.01 m/h 0 %
14:00:00 clear sky 25.815 25.815 25.815 26 2.52 m/h 0 %
17:00:00 clear sky 24.531 24.531 24.531 35 1.76 m/h 0 %
20:00:00 clear sky 17.650 17.650 17.650 46 2.13 m/h 0 %
23:00:00 clear sky 15.796 15.796 15.796 40 3.48 m/h 0 %
23-Apr-2019 (Tue)
02:00:00 clear sky 14.477 14.477 14.477 35 3.92 m/h 0 %
05:00:00 scattered clouds 13.916 13.916 13.916 35 3.93 m/h 0 %
08:00:00 overcast clouds 19.687 19.687 19.687 40 3.11 m/h 0 %
11:00:00 overcast clouds 26.950 26.950 26.950 21 0.7 m/h 0 %
14:00:00 scattered clouds 27.750 27.750 27.750 21 1.82 m/h 0 %
17:00:00 scattered clouds 26.350 26.350 26.350 27 1.01 m/h 0 %
20:00:00 broken clouds 19.228 19.228 19.228 36 2.57 m/h 0 %
23:00:00 overcast clouds 18.550 18.550 18.550 35 3.21 m/h 0 %
24-Apr-2019 (Wed)
02:00:00 light rain 16.782 16.782 16.782 40 3.62 m/h 13 %
05:00:00 light rain 15.724 15.724 15.724 49 3.89 m/h 44 %
08:00:00 light rain 19.650 19.650 19.650 50 2.93 m/h 131 %
11:00:00 light rain 23.208 23.208 23.208 38 2.44 m/h 244 %
14:00:00 light rain 25.750 25.750 25.750 34 3.56 m/h 13 %
17:00:00 light rain 20.650 20.650 20.650 57 1.1 m/h 44 %
20:00:00 light rain 16.555 16.555 16.555 66 3.32 m/h 38 %
23:00:00 moderate rain 15.245 15.245 15.245 69 2.88 m/h 550 %
25-Apr-2019 (Thu)
02:00:00 light rain 15.150 15.150 15.150 66 3.27 m/h 50 %
05:00:00 light rain 13.512 13.512 13.512 68 3.48 m/h 150 %
08:00:00 light rain 19.320 19.320 19.320 52 2.84 m/h 81 %
11:00:00 few clouds 24.890 24.890 24.890 32 2.77 m/h 0 %
14:00:00 clear sky 26.550 26.550 26.550 28 4.29 m/h 0 %
17:00:00 few clouds 24.811 24.811 24.811 34 2.53 m/h 0 %
20:00:00 broken clouds 19.025 19.025 19.025 39 2.37 m/h 0 %
23:00:00 light rain 14.043 14.043 14.043 59 4.06 m/h 225 %
26-Apr-2019 (Fri)
02:00:00 light rain 12.632 12.632 12.632 63 4.04 m/h 150 %
05:00:00 light rain 11.926 11.926 11.926 58 3.9 m/h 100 %

Famous Cities (60)